Time;durP1;ratioP1;P1;durP2;ratioP2;P2;SDS_P1;SDS_P2;PMS_P1;PMS_P2;Temp;Humidity;BMP_temperature;BMP_pressure;BME280_temperature;BME280_humidity;BME280_pressure;Samples;Min_cycle;Max_cycle;Signal;HPM_P1;HPM_P2
2022/10/02 00:01:10;;;;;;;5.40;2.10;;;;;;;;;;4967893;28;20045;-83
2022/10/02 00:03:38;;;;;;;6.47;2.10;;;;;;;;;;4957468;28;20398;-83
2022/10/02 00:06:12;;;;;;;6.88;1.83;;;;;;;;;;4976542;28;20445;-83
2022/10/02 00:08:58;;;;;;;10.57;2.45;;;;;;;;;;4964138;28;20070;-84
2022/10/02 00:11:26;;;;;;;11.13;2.65;;;;;;;;;;4956001;28;20792;-83
2022/10/02 00:13:54;;;;;;;6.57;2.08;;;;;;;;;;4991596;28;20080;-83
2022/10/02 00:16:36;;;;;;;6.50;2.38;;;;;;;;;;4993566;28;20038;-84
2022/10/02 00:19:02;;;;;;;6.90;2.58;;;;;;;;;;4961094;28;20039;-84
2022/10/02 00:21:28;;;;;;;5.22;2.13;;;;;;;;;;4981003;28;20023;-83
2022/10/02 00:24:01;;;;;;;4.43;1.63;;;;;;;;;;4981748;28;20047;-84
2022/10/02 00:26:33;;;;;;;5.07;1.80;;;;;;;;;;4982077;28;20038;-84
2022/10/02 00:28:59;;;;;;;6.07;2.45;;;;;;;;;;4985846;28;20050;-83
2022/10/02 00:31:33;;;;;;;8.05;2.90;;;;;;;;;;4975855;28;20023;-84
2022/10/02 00:34:02;;;;;;;5.78;2.03;;;;;;;;;;4985559;28;20525;-83
2022/10/02 00:36:32;;;;;;;13.18;2.70;;;;;;;;;;4965276;28;20024;-83
2022/10/02 00:39:18;;;;;;;4.53;1.77;;;;;;;;;;4975148;28;20047;-84
2022/10/02 00:41:44;;;;;;;3.20;1.48;;;;;;;;;;4918175;28;20034;-83
2022/10/02 00:44:19;;;;;;;9.73;2.78;;;;;;;;;;4975583;28;20019;-84
2022/10/02 00:46:48;;;;;;;3.17;1.60;;;;;;;;;;4990687;28;20474;-83
2022/10/02 00:49:24;;;;;;;13.25;2.47;;;;;;;;;;4989493;28;20023;-84
2022/10/02 00:51:56;;;;;;;6.90;1.90;;;;;;;;;;4985548;28;20105;-84
2022/10/02 00:54:47;;;;;;;10.65;2.17;;;;;;;;;;4978261;28;20031;-84
2022/10/02 00:57:13;;;;;;;;;;;;;;;;;;4986298;28;20027;-83
2022/10/02 00:59:55;;;;;;;6.03;2.47;;;;;;;;;;4977087;28;19934;-83
2022/10/02 01:02:33;;;;;;;5.68;2.08;;;;;;;;;;4976223;28;20034;-83
2022/10/02 01:05:12;;;;;;;10.07;2.25;;;;;;;;;;4987115;28;20039;-83
2022/10/02 01:07:43;;;;;;;7.00;1.85;;;;;;;;;;4975018;28;20069;-84
2022/10/02 01:10:09;;;;;;;7.63;2.47;;;;;;;;;;4953751;28;20505;-83
2022/10/02 01:12:36;;;;;;;12.57;2.33;;;;;;;;;;4967941;29;20031;-83
2022/10/02 01:15:10;;;;;;;9.75;2.65;;;;;;;;;;4967621;28;20244;-82
2022/10/02 01:17:36;;;;;;;9.38;2.90;;;;;;;;;;4963015;28;20082;-83
2022/10/02 01:20:04;;;;;;;9.68;2.15;;;;;;;;;;4969657;28;20027;-83
2022/10/02 01:22:35;;;;;;;9.88;2.30;;;;;;;;;;4969897;28;20503;-83
2022/10/02 01:25:04;;;;;;;8.15;2.58;;;;;;;;;;4962336;28;20027;-83
2022/10/02 01:27:36;;;;;;;6.97;1.65;;;;;;;;;;4972056;28;20042;-83
2022/10/02 01:30:18;;;;;;;6.50;2.10;;;;;;;;;;4975674;28;20030;-83
2022/10/02 01:32:44;;;;;;;;;;;;;;;;;;4957489;28;20050;-83
2022/10/02 01:35:25;;;;;;;10.07;2.60;;;;;;;;;;4962704;28;19934;-83
2022/10/02 01:37:53;;;;;;;11.15;2.95;;;;;;;;;;4974353;28;20030;-84
2022/10/02 01:40:38;;;;;;;6.68;2.08;;;;;;;;;;4978899;28;20035;-83
2022/10/02 01:43:06;;;;;;;9.32;2.30;;;;;;;;;;4980350;28;20024;-83
2022/10/02 01:45:39;;;;;;;7.05;2.67;;;;;;;;;;4972742;28;20135;-83
2022/10/02 01:48:12;;;;;;;8.32;2.20;;;;;;;;;;4981971;28;20019;-83
2022/10/02 01:51:07;;;;;;;9.23;1.90;;;;;;;;;;4969323;28;20034;-83
2022/10/02 01:53:40;;;;;;;6.78;2.10;;;;;;;;;;4960986;28;20106;-83
2022/10/02 01:56:17;;;;;;;9.02;2.08;;;;;;;;;;4967834;28;20082;-82
2022/10/02 01:59:03;;;;;;;7.88;2.50;;;;;;;;;;4965829;28;20037;-82
2022/10/02 02:01:39;;;;;;;10.57;2.50;;;;;;;;;;4985104;28;20038;-82
2022/10/02 02:04:21;;;;;;;8.93;2.58;;;;;;;;;;4976616;28;20088;-84
2022/10/02 02:06:52;;;;;;;6.00;2.10;;;;;;;;;;4970246;28;20404;-84
2022/10/02 02:09:38;;;;;;;9.10;2.45;;;;;;;;;;4977355;28;20110;-81
2022/10/02 02:12:14;;;;;;;8.98;2.92;;;;;;;;;;4964090;28;20468;-84
2022/10/02 02:14:44;;;;;;;9.88;2.47;;;;;;;;;;4962415;28;20038;-84
2022/10/02 02:17:16;;;;;;;9.35;2.88;;;;;;;;;;4967602;28;20050;-83
2022/10/02 02:19:45;;;;;;;8.85;3.05;;;;;;;;;;4972682;28;20444;-83
2022/10/02 02:22:19;;;;;;;9.73;2.08;;;;;;;;;;4971586;28;20023;-84
2022/10/02 02:24:51;;;;;;;6.63;2.13;;;;;;;;;;4963924;28;20027;-79
2022/10/02 02:27:20;;;;;;;11.15;2.72;;;;;;;;;;4978117;28;20019;-84
2022/10/02 02:29:48;;;;;;;7.53;1.95;;;;;;;;;;4976730;28;20027;-83
2022/10/02 02:32:15;;;;;;;7.60;2.38;;;;;;;;;;4974304;28;20055;-82
2022/10/02 02:34:47;;;;;;;6.95;2.17;;;;;;;;;;4970914;28;20042;-81
2022/10/02 02:37:17;;;;;;;9.98;3.30;;;;;;;;;;4975836;28;20027;-83
2022/10/02 02:39:47;;;;;;;11.98;2.60;;;;;;;;;;4982395;28;20051;-83
2022/10/02 02:42:15;;;;;;;10.45;2.17;;;;;;;;;;4969896;28;20023;-83
2022/10/02 02:44:44;;;;;;;8.50;2.65;;;;;;;;;;4982452;28;20031;-83
2022/10/02 02:47:13;;;;;;;9.75;2.63;;;;;;;;;;4980595;28;20037;-82
2022/10/02 02:49:51;;;;;;;6.97;2.53;;;;;;;;;;4973501;28;20563;-82
2022/10/02 02:52:20;;;;;;;11.45;2.35;;;;;;;;;;4968344;28;20038;-83
2022/10/02 02:54:52;;;;;;;10.68;2.25;;;;;;;;;;4964745;28;20046;-83
2022/10/02 02:57:23;;;;;;;6.50;2.47;;;;;;;;;;4968928;28;20034;-85
2022/10/02 02:59:49;;;;;;;13.75;3.10;;;;;;;;;;4969690;28;20015;-84
2022/10/02 03:02:16;;;;;;;6.55;2.42;;;;;;;;;;4978469;28;20033;-84
2022/10/02 03:04:42;;;;;;;11.18;2.88;;;;;;;;;;4978232;28;20031;-83
2022/10/02 03:07:11;;;;;;;10.65;3.20;;;;;;;;;;4969505;28;20030;-83
2022/10/02 03:09:39;;;;;;;11.02;2.80;;;;;;;;;;4961817;28;20046;-83
2022/10/02 03:12:05;;;;;;;11.90;3.03;;;;;;;;;;4969966;28;20054;-83
2022/10/02 03:14:31;;;;;;;8.52;2.03;;;;;;;;;;4968231;28;20039;-84
2022/10/02 03:17:07;;;;;;;11.88;3.03;;;;;;;;;;4979057;28;20031;-84
2022/10/02 03:19:40;;;;;;;9.15;2.47;;;;;;;;;;4989139;28;20047;-84
2022/10/02 03:22:22;;;;;;;12.20;2.53;;;;;;;;;;4976570;28;20008;-83
2022/10/02 03:24:51;;;;;;;10.48;3.45;;;;;;;;;;4974237;28;20481;-83
2022/10/02 03:27:26;;;;;;;9.25;2.22;;;;;;;;;;4981131;28;20027;-83
2022/10/02 03:29:57;;;;;;;11.20;3.40;;;;;;;;;;4968813;28;20437;-82
2022/10/02 03:32:24;;;;;;;11.93;2.50;;;;;;;;;;4972431;28;20051;-83
2022/10/02 03:34:51;;;;;;;10.90;2.45;;;;;;;;;;4978085;28;20046;-83
2022/10/02 03:37:17;;;;;;;9.65;2.72;;;;;;;;;;4970536;28;20062;-82
2022/10/02 03:39:43;;;;;;;7.63;2.35;;;;;;;;;;4974999;28;20030;-82
2022/10/02 03:42:13;;;;;;;9.18;2.30;;;;;;;;;;4969238;28;20107;-82
2022/10/02 03:44:39;;;;;;;9.15;2.67;;;;;;;;;;4965073;28;20019;-82
2022/10/02 03:47:06;;;;;;;7.25;2.22;;;;;;;;;;4971042;28;20440;-81
2022/10/02 03:49:32;;;;;;;9.98;2.72;;;;;;;;;;4964462;28;20062;-81
2022/10/02 03:51:58;;;;;;;9.88;1.95;;;;;;;;;;4981810;28;20041;-81
2022/10/02 03:54:24;;;;;;;8.23;2.33;;;;;;;;;;4982441;28;20489;-81
2022/10/02 03:56:57;;;;;;;7.78;2.40;;;;;;;;;;4966847;28;20030;-81
2022/10/02 03:59:36;;;;;;;7.38;2.35;;;;;;;;;;4967186;28;20035;-82
2022/10/02 04:02:06;;;;;;;10.00;2.45;;;;;;;;;;4974684;28;20027;-82
2022/10/02 04:04:40;;;;;;;10.43;2.45;;;;;;;;;;4971280;28;20478;-82
2022/10/02 04:07:07;;;;;;;9.73;2.45;;;;;;;;;;4977614;28;20019;-79
2022/10/02 04:09:51;;;;;;;12.40;2.83;;;;;;;;;;4987118;28;20031;-82
2022/10/02 04:12:25;;;;;;;9.57;2.58;;;;;;;;;;4970147;28;20086;-82
2022/10/02 04:14:51;;;;;;;8.43;2.22;;;;;;;;;;4982832;28;20031;-82
2022/10/02 04:17:27;;;;;;;12.07;2.55;;;;;;;;;;4974889;28;20179;-82
2022/10/02 04:19:56;;;;;;;9.93;2.63;;;;;;;;;;4983258;28;20043;-83
2022/10/02 04:22:38;;;;;;;8.15;2.15;;;;;;;;;;4984430;28;20046;-83
2022/10/02 04:25:26;;;;;;;9.10;2.30;;;;;;;;;;4969303;28;20076;-80
2022/10/02 04:28:04;;;;;;;6.50;1.90;;;;;;;;;;4982378;28;20046;-80
2022/10/02 04:30:36;;;;;;;10.93;2.63;;;;;;;;;;4971408;28;20035;-81
2022/10/02 04:33:11;;;;;;;10.90;2.00;;;;;;;;;;4967602;28;20035;-82
2022/10/02 04:35:42;;;;;;;8.98;2.20;;;;;;;;;;4959696;28;20083;-81
2022/10/02 04:38:27;;;;;;;11.07;2.63;;;;;;;;;;4969074;28;20161;-82
2022/10/02 04:41:08;;;;;;;10.35;2.70;;;;;;;;;;4959078;28;20031;-82
2022/10/02 04:43:34;;;;;;;;;;;;;;;;;;4945445;28;20019;-82
2022/10/02 04:46:10;;;;;;;8.75;2.17;;;;;;;;;;4966106;28;19918;-83
2022/10/02 04:48:39;;;;;;;9.85;3.20;;;;;;;;;;4985677;28;20010;-81
2022/10/02 04:51:11;;;;;;;8.95;2.30;;;;;;;;;;4991873;28;20343;-83
2022/10/02 04:53:40;;;;;;;7.13;1.90;;;;;;;;;;4980348;28;20035;-82
2022/10/02 04:56:25;;;;;;;19.23;2.78;;;;;;;;;;4979584;28;20019;-83
2022/10/02 04:59:03;;;;;;;8.35;2.67;;;;;;;;;;4969379;28;20094;-82
2022/10/02 05:01:46;;;;;;;12.02;2.85;;;;;;;;;;4988114;28;20035;-83
2022/10/02 05:04:21;;;;;;;9.57;2.42;;;;;;;;;;4972614;28;20079;-82
2022/10/02 05:06:55;;;;;;;6.45;2.33;;;;;;;;;;4999838;28;20010;-82
2022/10/02 05:09:27;;;;;;;8.55;2.45;;;;;;;;;;4991245;28;20016;-82
2022/10/02 05:12:12;;;;;;;12.90;2.92;;;;;;;;;;4986832;28;20042;-83
2022/10/02 05:15:02;;;;;;;7.65;2.25;;;;;;;;;;4979961;28;20030;-81
2022/10/02 05:17:40;;;;;;;5.13;2.33;;;;;;;;;;4976124;28;20027;-82
2022/10/02 05:20:25;;;;;;;8.73;2.85;;;;;;;;;;4974545;28;20035;-83
2022/10/02 05:22:56;;;;;;;9.43;2.70;;;;;;;;;;4971658;28;20026;-83
2022/10/02 05:25:28;;;;;;;10.82;2.28;;;;;;;;;;4960110;28;20478;-82
2022/10/02 05:27:54;;;;;;;;;;;;;;;;;;4992712;28;20018;-83
2022/10/02 05:30:20;;;;;;;10.75;2.05;;;;;;;;;;4997188;28;19902;-83
2022/10/02 05:32:59;;;;;;;8.25;2.35;;;;;;;;;;4982503;28;20014;-83
2022/10/02 05:35:33;;;;;;;5.60;2.20;;;;;;;;;;4977883;28;20039;-83
2022/10/02 05:38:11;;;;;;;5.88;1.92;;;;;;;;;;4969754;28;20035;-83
2022/10/02 05:40:43;;;;;;;8.30;3.33;;;;;;;;;;4974867;28;20100;-83
2022/10/02 05:43:12;;;;;;;8.25;2.20;;;;;;;;;;4980886;28;20030;-82
2022/10/02 05:45:38;;;;;;;7.95;2.40;;;;;;;;;;4975523;28;20027;-82
2022/10/02 05:48:14;;;;;;;8.25;2.60;;;;;;;;;;4985018;28;20122;-84
2022/10/02 05:50:44;;;;;;;13.45;2.63;;;;;;;;;;4977218;28;20022;-82
2022/10/02 05:53:30;;;;;;;6.47;1.65;;;;;;;;;;4976447;28;20046;-83
2022/10/02 05:56:15;;;;;;;12.63;2.55;;;;;;;;;;4988073;28;20027;-82
2022/10/02 05:58:49;;;;;;;6.18;2.28;;;;;;;;;;4958889;28;20038;-82
2022/10/02 06:01:19;;;;;;;9.57;2.63;;;;;;;;;;4976793;28;20485;-82
2022/10/02 06:03:51;;;;;;;7.60;2.03;;;;;;;;;;4979323;28;20087;-82
2022/10/02 06:06:43;;;;;;;;;;;;;;;;;;;;;
2022/10/02 06:09:30;;;;;;;9.38;2.20;;;;;;;;;;4974891;28;20122;-81
2022/10/02 06:12:29;;;;;;;;;;;;;;;;;;;;;
2022/10/02 06:21:37;;;;;;;;;;;;;;;;;;;;;
2022/10/02 06:27:12;;;;;;;5.75;2.13;;;;;;;;;;4957831;28;20050;-80
2022/10/02 06:30:08;;;;;;;9.80;2.72;;;;;;;;;;5008863;28;20034;-83
2022/10/02 06:33:07;;;;;;;8.50;2.53;;;;;;;;;;4991101;28;20083;-80
2022/10/02 06:36:04;;;;;;;;;;;;;;;;;;;;;
2022/10/02 06:38:54;;;;;;;7.25;1.98;;;;;;;;;;4911492;29;20112;-81
2022/10/02 06:41:53;;;;;;;6.88;1.90;;;;;;;;;;4907096;29;20029;-82
2022/10/02 06:44:28;;;;;;;7.18;2.25;;;;;;;;;;4901363;29;20043;-82
2022/10/02 06:47:18;;;;;;;6.10;2.20;;;;;;;;;;4961998;28;20037;-80
2022/10/02 06:50:05;;;;;;;6.25;2.28;;;;;;;;;;5006257;28;20369;-82
2022/10/02 06:55:50;;;;;;;6.50;2.00;;;;;;;;;;4990809;28;20022;-81
2022/10/02 06:58:29;;;;;;;5.72;1.60;;;;;;;;;;5009916;28;20029;-81
2022/10/02 07:04:18;;;;;;;10.43;2.78;;;;;;;;;;5020246;23;20109;-81
2022/10/02 07:07:07;;;;;;;7.43;2.50;;;;;;;;;;5003482;28;20392;-80
2022/10/02 07:10:11;;;;;;;6.25;2.13;;;;;;;;;;5002387;28;20026;-81
2022/10/02 07:12:47;;;;;;;7.00;2.22;;;;;;;;;;4998776;28;20161;-80
2022/10/02 07:15:31;;;;;;;7.10;2.17;;;;;;;;;;4958218;28;20018;-81
2022/10/02 07:18:23;;;;;;;6.65;1.98;;;;;;;;;;4967852;28;20054;-81
2022/10/02 07:21:18;;;;;;;4.60;1.42;;;;;;;;;;4970682;28;20109;-80
2022/10/02 07:23:52;;;;;;;9.27;1.85;;;;;;;;;;4973146;28;20027;-81
2022/10/02 07:26:54;;;;;;;6.93;1.90;;;;;;;;;;4983239;28;20073;-80
2022/10/02 07:29:52;;;;;;;8.57;2.00;;;;;;;;;;4992583;28;20058;-81
2022/10/02 07:32:46;;;;;;;9.80;1.98;;;;;;;;;;4974797;28;20022;-78
2022/10/02 07:35:54;;;;;;;;;;;;;;;;;;;;;
2022/10/02 07:38:46;;;;;;;8.48;2.28;;;;;;;;;;5000230;28;20114;-80
2022/10/02 07:41:34;;;;;;;7.82;2.22;;;;;;;;;;4954651;28;20039;-79
2022/10/02 07:44:16;;;;;;;9.75;2.05;;;;;;;;;;4972322;28;20044;-83
2022/10/02 07:46:45;;;;;;;;;;;;;;;;;;4972346;28;20059;-80
2022/10/02 07:49:35;;;;;;;13.60;2.92;;;;;;;;;;4995304;28;20391;-76
2022/10/02 07:52:15;;;;;;;6.93;2.00;;;;;;;;;;4971301;28;20098;-80
2022/10/02 07:55:07;;;;;;;8.82;2.47;;;;;;;;;;4939423;29;20094;-80
2022/10/02 07:57:52;;;;;;;9.57;2.53;;;;;;;;;;4927086;28;20034;-80
2022/10/02 08:00:31;;;;;;;10.40;2.00;;;;;;;;;;4962466;28;20049;-80
2022/10/02 08:03:16;;;;;;;8.38;2.97;;;;;;;;;;4992993;23;20053;-79
2022/10/02 08:05:46;;;;;;;7.05;2.28;;;;;;;;;;4965495;28;20035;-78
2022/10/02 08:08:19;;;;;;;6.70;2.50;;;;;;;;;;4968518;28;20023;-80
2022/10/02 08:10:48;;;;;;;5.35;1.90;;;;;;;;;;4962097;28;20509;-78
2022/10/02 08:13:20;;;;;;;7.13;1.75;;;;;;;;;;4968163;28;20362;-78
2022/10/02 08:15:55;;;;;;;9.30;2.38;;;;;;;;;;4966584;28;20023;-77
2022/10/02 08:18:36;;;;;;;9.90;2.42;;;;;;;;;;5002599;28;20034;-81
2022/10/02 08:21:09;;;;;;;6.25;1.85;;;;;;;;;;4997178;28;20043;-86
2022/10/02 08:23:43;;;;;;;9.57;2.58;;;;;;;;;;4957598;28;20151;-76
2022/10/02 08:26:12;;;;;;;8.63;2.28;;;;;;;;;;4968572;28;20027;-75
2022/10/02 08:29:00;;;;;;;7.93;2.60;;;;;;;;;;4985119;28;20019;-76
2022/10/02 08:31:26;;;;;;;10.70;2.13;;;;;;;;;;4972148;28;20639;-78
2022/10/02 08:33:52;;;;;;;6.35;1.90;;;;;;;;;;4975437;28;20038;-76
2022/10/02 08:36:35;;;;;;;6.53;1.92;;;;;;;;;;4985889;28;20392;-76
2022/10/02 08:39:13;;;;;;;9.15;2.42;;;;;;;;;;4969306;28;20026;-78
2022/10/02 08:42:08;;;;;;;4.57;2.15;;;;;;;;;;4961181;28;20489;-77
2022/10/02 08:44:43;;;;;;;7.30;2.03;;;;;;;;;;4977394;28;20022;-79
2022/10/02 08:47:28;;;;;;;6.70;2.22;;;;;;;;;;4990331;28;20022;-77
2022/10/02 08:50:14;;;;;;;11.07;2.53;;;;;;;;;;4983397;28;20058;-77
2022/10/02 08:52:54;;;;;;;10.70;2.00;;;;;;;;;;4970282;28;20035;-76
2022/10/02 08:55:28;;;;;;;9.70;2.60;;;;;;;;;;4970078;28;20029;-76
2022/10/02 08:57:55;;;;;;;7.78;2.53;;;;;;;;;;4988798;28;20046;-77
2022/10/02 09:00:21;;;;;;;8.75;2.40;;;;;;;;;;4982390;28;20114;-76
2022/10/02 09:02:47;;;;;;;8.45;1.95;;;;;;;;;;4981192;28;20026;-78
2022/10/02 09:05:33;;;;;;;10.57;2.28;;;;;;;;;;4980162;28;20026;-77
2022/10/02 09:08:26;;;;;;;6.10;1.90;;;;;;;;;;4970660;28;20022;-77
2022/10/02 09:11:09;;;;;;;10.68;2.38;;;;;;;;;;4969012;28;20416;-77
2022/10/02 09:13:44;;;;;;;9.13;2.38;;;;;;;;;;4966498;28;20019;-75
2022/10/02 09:16:29;;;;;;;4.75;1.50;;;;;;;;;;4986760;28;20580;-77
2022/10/02 09:18:55;;;;;;;9.65;2.25;;;;;;;;;;4961434;28;20088;-76
2022/10/02 09:21:21;;;;;;;11.05;2.55;;;;;;;;;;4975060;28;20106;-76
2022/10/02 09:24:00;;;;;;;6.55;2.50;;;;;;;;;;4967756;28;20534;-76
2022/10/02 09:26:26;;;;;;;10.93;1.95;;;;;;;;;;4986527;28;20023;-78
2022/10/02 09:29:01;;;;;;;9.55;2.40;;;;;;;;;;4984831;28;20107;-76
2022/10/02 09:31:42;;;;;;;8.15;2.22;;;;;;;;;;4970510;28;20018;-77
2022/10/02 09:34:08;;;;;;;8.17;1.67;;;;;;;;;;4976743;28;20037;-76
2022/10/02 09:36:34;;;;;;;11.15;2.30;;;;;;;;;;4987877;28;20479;-79
2022/10/02 09:39:01;;;;;;;8.88;2.47;;;;;;;;;;4986921;28;20440;-77
2022/10/02 09:41:40;;;;;;;9.75;2.20;;;;;;;;;;4981297;28;20023;-77
2022/10/02 09:44:27;;;;;;;9.25;2.40;;;;;;;;;;4959306;28;20023;-76
2022/10/02 09:46:53;;;;;;;5.70;2.13;;;;;;;;;;4965739;28;20433;-77
2022/10/02 09:49:32;;;;;;;9.95;2.88;;;;;;;;;;4969736;28;20053;-76
2022/10/02 09:52:27;;;;;;;7.82;2.03;;;;;;;;;;4971506;28;20122;-77
2022/10/02 09:55:12;;;;;;;5.45;2.10;;;;;;;;;;4945486;28;20031;-77
2022/10/02 09:57:56;;;;;;;5.68;1.60;;;;;;;;;;4990239;28;20022;-76
2022/10/02 10:00:42;;;;;;;5.68;1.70;;;;;;;;;;4961260;28;20034;-77
2022/10/02 10:03:11;;;;;;;4.70;1.75;;;;;;;;;;4974821;28;20035;-76
2022/10/02 10:05:56;;;;;;;4.47;1.95;;;;;;;;;;4983225;28;20484;-76
2022/10/02 10:08:38;;;;;;;6.70;2.00;;;;;;;;;;4968153;28;20054;-76
2022/10/02 10:11:04;;;;;;;9.98;2.38;;;;;;;;;;4973567;28;20472;-76
2022/10/02 10:13:33;;;;;;;7.28;2.78;;;;;;;;;;4976274;28;20114;-77
2022/10/02 10:16:18;;;;;;;5.38;2.15;;;;;;;;;;4986093;28;20022;-76
2022/10/02 10:18:55;;;;;;;9.70;3.10;;;;;;;;;;4985363;28;20023;-76
2022/10/02 10:21:24;;;;;;;9.07;3.28;;;;;;;;;;4964596;28;20026;-76
2022/10/02 10:23:50;;;;;;;5.55;2.42;;;;;;;;;;4975646;28;20026;-77
2022/10/02 10:26:26;;;;;;;9.38;2.65;;;;;;;;;;4943669;28;20127;-79
2022/10/02 10:29:08;;;;;;;11.82;2.40;;;;;;;;;;4964133;28;20057;-77
2022/10/02 10:31:33;;;;;;;;;;;;;;;;;;4970077;28;20037;-77
2022/10/02 10:34:02;;;;;;;7.38;2.58;;;;;;;;;;4975492;28;19906;-77
2022/10/02 10:39:50;;;;;;;9.95;3.05;;;;;;;;;;5000832;28;20056;-80
2022/10/02 10:42:35;;;;;;;7.47;2.08;;;;;;;;;;5003240;28;20037;-79
2022/10/02 10:45:07;;;;;;;5.07;2.15;;;;;;;;;;4983834;28;20026;-80
2022/10/02 10:47:42;;;;;;;6.18;2.13;;;;;;;;;;4977438;28;20057;-76
2022/10/02 10:50:27;;;;;;;9.20;2.53;;;;;;;;;;4963262;28;20023;-75
2022/10/02 10:53:11;;;;;;;8.27;2.53;;;;;;;;;;4970680;28;20479;-79
2022/10/02 10:55:53;;;;;;;5.57;1.83;;;;;;;;;;4982052;28;20023;-77
2022/10/02 10:58:51;;;;;;;4.45;1.67;;;;;;;;;;4984176;28;20391;-76
2022/10/02 11:01:17;;;;;;;6.93;2.10;;;;;;;;;;4973171;28;20396;-77
2022/10/02 11:03:57;;;;;;;6.13;2.13;;;;;;;;;;4974886;28;20093;-78
2022/10/02 11:06:37;;;;;;;5.72;1.63;;;;;;;;;;4985049;28;20050;-76
2022/10/02 11:09:09;;;;;;;6.43;2.08;;;;;;;;;;4969283;28;20019;-76
2022/10/02 11:11:35;;;;;;;4.80;1.80;;;;;;;;;;4978820;28;20461;-76
2022/10/02 11:14:04;;;;;;;4.95;2.15;;;;;;;;;;4968471;28;20098;-76
2022/10/02 11:16:44;;;;;;;10.07;2.03;;;;;;;;;;4988128;28;20034;-79
2022/10/02 11:19:32;;;;;;;5.68;1.77;;;;;;;;;;4976690;28;20401;-84
2022/10/02 11:27:56;;;;;;;6.68;1.98;;;;;;;;;;4966095;28;20038;-77
2022/10/02 11:30:37;;;;;;;5.28;1.52;;;;;;;;;;4960434;28;20365;-76
2022/10/02 11:33:03;;;;;;;4.35;1.45;;;;;;;;;;4958051;28;20054;-76
2022/10/02 11:38:17;;;;;;;6.38;1.80;;;;;;;;;;5007137;23;20149;-77
2022/10/02 11:40:51;;;;;;;5.32;1.55;;;;;;;;;;4977269;28;20030;-76
2022/10/02 11:43:17;;;;;;;6.22;1.80;;;;;;;;;;4991671;28;20085;-77
2022/10/02 11:46:10;;;;;;;5.07;1.90;;;;;;;;;;4977628;28;20084;-77
2022/10/02 11:48:54;;;;;;;6.03;2.22;;;;;;;;;;4966678;28;20500;-77
2022/10/02 11:51:20;;;;;;;5.28;2.10;;;;;;;;;;4976674;28;20552;-77
2022/10/02 11:53:46;;;;;;;7.03;1.85;;;;;;;;;;4993931;28;20145;-77
2022/10/02 11:56:31;;;;;;;5.63;2.00;;;;;;;;;;4993437;28;20488;-78
2022/10/02 11:59:17;;;;;;;8.43;2.90;;;;;;;;;;4988383;28;20034;-77
2022/10/02 12:01:48;;;;;;;4.70;1.77;;;;;;;;;;4976153;28;20022;-76
2022/10/02 12:04:26;;;;;;;3.80;1.25;;;;;;;;;;4995475;28;20155;-76
2022/10/02 12:18:04;;;;;;;5.28;1.30;;;;;;;;;;4968228;28;20023;-77
2022/10/02 12:26:58;;;;;;;3.17;1.25;;;;;;;;;;4975829;28;20030;-76
2022/10/02 12:29:33;;;;;;;4.53;1.20;;;;;;;;;;4978635;28;20019;-76
2022/10/02 12:32:06;;;;;;;4.22;1.38;;;;;;;;;;4977877;28;20102;-77
2022/10/02 12:34:37;;;;;;;3.17;1.27;;;;;;;;;;4978349;28;20081;-76
2022/10/02 12:37:04;;;;;;;6.57;1.65;;;;;;;;;;4978852;28;20098;-78
2022/10/02 12:39:44;;;;;;;3.45;1.55;;;;;;;;;;4977756;28;20053;-77
2022/10/02 12:42:25;;;;;;;4.07;1.45;;;;;;;;;;4958311;28;20546;-76
2022/10/02 12:44:52;;;;;;;;;;;;;;;;;;4975786;28;20110;-76
2022/10/02 12:50:39;;;;;;;3.03;1.38;;;;;;;;;;4959681;28;20535;-76
2022/10/02 12:53:30;;;;;;;6.00;1.67;;;;;;;;;;4975191;28;20030;-76
2022/10/02 12:59:48;;;;;;;6.00;2.40;;;;;;;;;;4935029;29;20521;-76
2022/10/02 13:15:28;;;;;;;12.35;2.67;;;;;;;;;;4951023;29;20034;-76
2022/10/02 13:18:28;;;;;;;4.47;1.90;;;;;;;;;;4968581;28;20034;-77
2022/10/02 13:21:30;;;;;;;5.03;1.65;;;;;;;;;;4959293;28;20026;-76
2022/10/02 13:27:20;;;;;;;10.05;2.25;;;;;;;;;;4963644;28;20073;-77
2022/10/02 13:30:04;;;;;;;7.10;1.52;;;;;;;;;;4952983;28;20046;-78
2022/10/02 13:32:33;;;;;;;4.13;1.75;;;;;;;;;;4962673;28;20038;-76
2022/10/02 13:35:18;;;;;;;7.45;1.88;;;;;;;;;;4939586;28;20031;-77
2022/10/02 13:38:18;;;;;;;5.53;1.73;;;;;;;;;;4957554;28;20113;-77
2022/10/02 13:41:12;;;;;;;7.65;1.92;;;;;;;;;;4954619;28;20027;-76
2022/10/02 13:44:00;;;;;;;9.20;2.03;;;;;;;;;;4962451;28;20015;-76
2022/10/02 13:46:53;;;;;;;5.75;1.20;;;;;;;;;;4956779;28;20028;-76
2022/10/02 13:49:37;;;;;;;8.85;2.47;;;;;;;;;;4951536;28;20090;-76
2022/10/02 13:52:22;;;;;;;7.82;2.35;;;;;;;;;;4962767;28;20031;-75
2022/10/02 13:55:01;;;;;;;7.65;2.20;;;;;;;;;;4939805;28;20035;-76
2022/10/02 13:57:42;;;;;;;6.50;2.05;;;;;;;;;;4953843;28;20023;-76
2022/10/02 14:00:13;;;;;;;6.00;2.05;;;;;;;;;;4967307;28;20042;-76
2022/10/02 14:02:48;;;;;;;8.23;2.63;;;;;;;;;;4936970;29;20106;-76
2022/10/02 14:05:34;;;;;;;6.53;1.65;;;;;;;;;;4961448;28;20029;-75
2022/10/02 14:08:19;;;;;;;5.30;1.77;;;;;;;;;;4938900;28;20031;-76
2022/10/02 14:10:45;;;;;;;6.47;2.28;;;;;;;;;;4936336;29;20023;-76
2022/10/02 14:13:24;;;;;;;5.43;2.00;;;;;;;;;;4936152;29;20078;-76
2022/10/02 14:16:08;;;;;;;7.60;2.08;;;;;;;;;;4953882;28;20509;-76
2022/10/02 14:18:34;;;;;;;6.22;2.08;;;;;;;;;;4961123;28;20058;-77
2022/10/02 14:21:09;;;;;;;7.38;1.98;;;;;;;;;;4961042;28;20030;-76
2022/10/02 14:23:49;;;;;;;11.05;2.83;;;;;;;;;;4972260;28;20473;-76
2022/10/02 14:26:21;;;;;;;6.93;1.60;;;;;;;;;;4949551;28;20464;-77
2022/10/02 14:28:47;;;;;;;8.82;2.85;;;;;;;;;;4957674;28;20048;-77
2022/10/02 14:31:19;;;;;;;4.40;1.90;;;;;;;;;;4971430;28;20163;-77
2022/10/02 14:33:57;;;;;;;10.10;2.40;;;;;;;;;;4953827;28;20390;-77
2022/10/02 14:36:31;;;;;;;7.65;2.15;;;;;;;;;;4936405;28;20565;-76
2022/10/02 14:39:03;;;;;;;6.50;2.20;;;;;;;;;;4953561;28;20110;-76
2022/10/02 14:41:50;;;;;;;7.28;2.08;;;;;;;;;;4953555;28;20034;-76
2022/10/02 14:44:31;;;;;;;7.10;1.90;;;;;;;;;;4953768;28;20024;-76
2022/10/02 14:47:25;;;;;;;5.22;1.90;;;;;;;;;;4960813;28;20427;-76
2022/10/02 14:49:58;;;;;;;6.68;1.80;;;;;;;;;;4953994;28;20555;-76
2022/10/02 14:52:47;;;;;;;4.60;1.85;;;;;;;;;;4953572;28;20039;-76
2022/10/02 14:55:19;;;;;;;4.38;1.90;;;;;;;;;;4960901;28;20057;-76
2022/10/02 14:57:54;;;;;;;7.28;2.13;;;;;;;;;;4958986;28;20395;-76
2022/10/02 15:00:21;;;;;;;7.60;1.80;;;;;;;;;;4962479;28;20068;-76
2022/10/02 15:02:50;;;;;;;6.78;2.05;;;;;;;;;;4953430;28;20035;-76
2022/10/02 15:05:35;;;;;;;6.28;2.08;;;;;;;;;;4952744;28;20027;-76
2022/10/02 15:08:04;;;;;;;6.60;2.00;;;;;;;;;;4951125;28;20712;-75
2022/10/02 15:10:36;;;;;;;7.20;2.00;;;;;;;;;;4968365;28;20110;-76
2022/10/02 15:13:04;;;;;;;5.43;2.05;;;;;;;;;;4939079;28;20027;-76
2022/10/02 15:17:53;;;;;;;7.63;2.55;;;;;;;;;;4955333;28;20118;-76
2022/10/02 15:18:38;;;;;;;5.82;2.33;;;;;;;;;;4953034;28;20205;-76
2022/10/02 15:21:07;;;;;;;7.22;2.65;;;;;;;;;;4953103;28;20055;-76
2022/10/02 15:23:44;;;;;;;6.80;2.20;;;;;;;;;;4953320;28;20066;-76
2022/10/02 15:26:20;;;;;;;3.40;2.03;;;;;;;;;;4953148;28;20071;-76
2022/10/02 15:29:02;;;;;;;8.68;2.72;;;;;;;;;;4939441;28;20528;-76
2022/10/02 15:31:36;;;;;;;7.47;2.33;;;;;;;;;;4955580;28;20042;-76
2022/10/02 15:34:08;;;;;;;6.47;2.63;;;;;;;;;;4953375;28;20027;-76
2022/10/02 15:36:34;;;;;;;;;;;;;;;;;;4953741;28;20023;-77
2022/10/02 15:39:18;;;;;;;7.22;2.63;;;;;;;;;;4953064;28;19910;-77
2022/10/02 15:42:14;;;;;;;9.98;2.85;;;;;;;;;;4963150;28;20031;-76
2022/10/02 15:44:55;;;;;;;7.68;2.80;;;;;;;;;;4943412;28;20035;-76
2022/10/02 15:47:34;;;;;;;8.80;2.65;;;;;;;;;;4961147;28;20039;-76
2022/10/02 15:50:09;;;;;;;3.83;2.20;;;;;;;;;;4935740;29;20054;-76
2022/10/02 15:52:45;;;;;;;6.50;2.88;;;;;;;;;;4954557;28;20023;-76
2022/10/02 15:55:24;;;;;;;7.78;2.85;;;;;;;;;;4957211;28;20035;-76
2022/10/02 15:57:50;;;;;;;9.13;2.15;;;;;;;;;;4951471;28;20031;-76
2022/10/02 16:00:16;;;;;;;11.43;3.40;;;;;;;;;;4947529;29;20086;-77
2022/10/02 16:02:48;;;;;;;6.18;2.65;;;;;;;;;;4950968;28;20105;-76
2022/10/02 16:05:14;;;;;;;4.68;2.53;;;;;;;;;;4967578;28;20023;-77
2022/10/02 16:07:55;;;;;;;6.70;2.80;;;;;;;;;;4959909;28;20016;-75
2022/10/02 16:10:26;;;;;;;10.38;3.22;;;;;;;;;;4961321;28;20034;-76
2022/10/02 16:12:52;;;;;;;6.43;2.70;;;;;;;;;;4959244;28;20031;-76
2022/10/02 16:15:22;;;;;;;5.75;2.33;;;;;;;;;;4955328;28;20042;-75
2022/10/02 16:18:12;;;;;;;8.57;2.97;;;;;;;;;;4937659;28;20053;-75
2022/10/02 16:21:01;;;;;;;5.65;3.03;;;;;;;;;;4955540;28;20110;-75
2022/10/02 16:23:46;;;;;;;6.85;2.65;;;;;;;;;;4956258;28;20023;-75
2022/10/02 16:26:18;;;;;;;9.15;2.95;;;;;;;;;;4939148;28;20497;-76
2022/10/02 16:28:52;;;;;;;9.80;3.08;;;;;;;;;;4942377;28;20026;-76
2022/10/02 16:31:28;;;;;;;7.30;2.78;;;;;;;;;;4959664;28;20043;-76
2022/10/02 16:34:17;;;;;;;8.48;2.78;;;;;;;;;;4938974;29;20405;-76
2022/10/02 16:36:57;;;;;;;8.75;2.72;;;;;;;;;;4968672;28;20102;-76
2022/10/02 16:39:35;;;;;;;4.45;2.70;;;;;;;;;;4955799;28;20032;-76
2022/10/02 16:42:13;;;;;;;9.43;3.13;;;;;;;;;;4956195;28;20398;-76
2022/10/02 16:44:54;;;;;;;8.00;2.95;;;;;;;;;;4955880;28;20030;-76
2022/10/02 16:47:24;;;;;;;9.73;2.83;;;;;;;;;;4938336;28;20118;-76
2022/10/02 16:49:50;;;;;;;6.32;2.92;;;;;;;;;;4938524;29;20027;-75
2022/10/02 16:52:25;;;;;;;6.68;3.00;;;;;;;;;;4956037;28;20027;-76